Hlavní strana
METAR-TAF:

METAR-TAF

Letiště :

Jacksonville, Severní Karolína, Spojené státy americké

zeměpisná šířka: 34-42-21N, zeměpisná délka: 077-26-27W, výška: 7 m

Aktuální stav počasí

Zpráva byla vytvořena před 38 minutami, v 21:56 UTC
Jihozápadní vítr 9 kt
Teplota 20°C
Vlhkost vzduchu 56%
Tlak 1000 hPa
Viditelnost: 16.1 km
Jasno

METAR: KNCA 302156Z 23009KT 10SM CLR 20/11 A2954 RMK AO2 SLP005 T02000106

Čas: 17:34 (22:34 UTC)

Předpověď počasí

Předpověď platná od 30 v 21 UTC do 01 v 21 UTC
Jihozápadní vítr 14 kt s nárazy do 23 kt
Viditelnost 10 km a více
Polojasno ve výšce 3500 ft
Od 01 v 0100 UTC
Západojihozápadní vítr 10 kt s nárazy do 21 kt
Viditelnost 10 km a více
Polojasno ve výšce 3000 ft
Od 01 v 1500 UTC
Západní vítr 12 kt
Viditelnost 10 km a více
Jasno

TAF: KNCA 3021/0121 23014G23KT 9999 SCT035 QNH2949INS FM010100 25010G21KT 9999 SCT030 QNH2989INS FM011500 27012KT 9999 SKC QNH2995INS T22/3021Z T05/0112Z

Stav a předpovědi počasí z více než 4 000 letišť (zprávy METAR a TAF).

Červené a žluté tečky na mapě představují dostupné meteorologické stanice.

Když kurzor umístíte na tečku, zobrazí se název stanice.

Pak kliknutím zobrazíte stav a předpověď počasí.

Chcete-li změnit mapu, kliknutím na zelené tlačítko se znaménkem +mapu přiblížíte, kliknutím na zelené tlačítko se znaménkem – mapu oddálíte a kliknutím na zelené šipky přejdete na sousední mapy.


METAR-TAF: